Terminal Aerodrome Forecast
Issued by NWS Wilmington, OH

Current Version | Previous Version | Text Only | Print | Product List | Glossary Off
Versions: 1 2 3 4 5 6 7 8 9 10 11 12 13 14 15 16 17 18 19 20 21 22 23 24 25 26 27 28 29 30 31

000
FTUS41 KILN 050327 AAA
TAFCVG
TAF AMD
KCVG 050327Z 0503/0606 27010KT P6SM OVC012
      TEMPO 0503/0505 OVC008
     FM051400 20004KT P6SM BKN012
     FM051700 13004KT P6SM SCT015 BKN200
     FM052100 08008KT P6SM BKN250=

USA.gov is the U.S. government's official web portal to all federal, state and local government web resources and services.